Latest Weather Observations for Mareeba

IDQ60801

Issued at 6:32 pm EST Tuesday 27 September 2016 (issued every 30 minutes, with the page automatically refreshed every 10 minutes)

About weather observations | Map of weather stations | Latest weather observations for QLD | Other Formats
Station Details ID: 031210 Name: MAREEBA AIRPORT Lat: -17.07 Lon: 145.43 Height: 471.93 m
Data from the previous 72 hours. | See also: Recent months at Mareeba
Date/Time
EST
Temp
°C
App
Temp
°C
Dew
Point
°C
Rel
Hum
%
Delta-T
°C
Wind Press
QNH
hPa
Press
MSL
hPa
Rain since
9am
mm
Dir  Spd
km/h
Gust
km/h
Spd
kts
Gust
kts
27/06:30pm 24.2 25.4 19.1 73 3.3 N 11 20 6 11 1013.7 - 0.0
27/06:00pm 25.7 26.4 18.9 66 4.4 N 13 22 7 12 1013.1 1010.8 0.0
27/05:30pm 27.6 27.8 17.7 54 6.4 NNE 13 22 7 12 1012.3 - 0.0
27/05:00pm 28.5 27.8 16.4 48 7.7 NNE 15 24 8 13 1011.9 - 0.0
27/04:30pm 30.0 28.7 15.7 42 9.0 NNE 17 28 9 15 1011.7 - 0.0
27/04:00pm 30.2 27.5 13.0 34 10.4 NNE 19 26 10 14 1011.6 - 0.0
27/03:30pm 30.8 28.7 13.6 35 10.5 NE 17 28 9 15 1011.6 - 0.0
27/03:00pm 30.8 28.5 14.0 36 10.4 NNE 19 26 10 14 1011.8 1009.6 0.0
27/02:30pm 31.3 29.4 13.1 33 11.1 NNE 15 24 8 13 1012.0 - 0.0
27/02:00pm 31.0 28.4 13.3 34 10.8 NNE 19 28 10 15 1012.5 - 0.0
27/01:30pm 31.4 28.5 12.2 30 11.5 N 19 26 10 14 1013.1 - 0.0
27/01:00pm 31.1 28.4 13.4 34 10.8 N 20 30 11 16 1013.5 - 0.0
27/12:30pm 31.7 29.7 13.9 34 11.0 N 17 26 9 14 1014.0 - 0.0
27/12:00pm 30.8 27.5 11.7 31 11.4 NNE 20 30 11 16 1014.5 1012.3 0.0
27/11:30am 30.6 30.1 17.0 44 8.7 N 15 26 8 14 1014.8 - 0.0
27/11:00am 30.7 28.7 13.9 36 10.3 N 17 26 9 14 1015.4 - 0.0
27/10:30am 29.2 29.5 16.0 44 8.3 N 9 17 5 9 1015.9 - 0.0
27/10:00am 27.8 28.4 16.7 50 7.0 NE 9 15 5 8 1016.4 - 0.0
27/09:30am 26.8 28.1 17.0 55 6.2 N 6 13 3 7 1016.5 - 0.0
27/09:00am 25.1 26.6 17.6 63 4.8 N 6 9 3 5 1016.8 1014.6 0.0
27/08:30am 23.6 25.4 17.3 67 4.0 NNE 4 9 2 5 1016.9 - 0.0
27/08:00am 23.1 25.7 17.6 71 3.5 CALM 0 6 0 3 1016.7 - 0.0
27/07:30am 21.9 24.4 17.3 75 2.9 CALM 0 0 0 0 1016.6 - 0.0
27/07:00am 20.3 22.6 17.7 85 1.6 SE 2 7 1 4 1016.2 - 0.0
27/06:30am 18.8 19.7 17.5 92 0.8 SSE 9 11 5 6 1015.7 - 0.0
27/06:00am 18.2 20.4 16.5 90 1.0 CALM 0 0 0 0 1015.4 1013.2 0.0
27/05:30am 18.7 20.6 16.8 89 1.2 SSE 2 7 1 4 1014.9 - 0.0
27/05:00am 19.3 19.8 17.4 89 1.2 SE 11 15 6 8 1014.8 - 0.0
27/04:30am 19.6 20.5 17.6 88 1.3 SE 9 11 5 6 1014.9 - 0.0
27/04:00am 19.5 20.6 18.0 91 0.9 SSE 9 11 5 6 1014.7 - 0.0
27/03:30am 19.3 20.3 17.8 91 0.9 SSE 9 11 5 6 1014.6 - 0.0
27/03:00am 19.9 22.8 18.2 90 1.1 CALM 0 0 0 0 1014.6 1012.4 0.0
27/02:30am 19.7 22.0 17.7 88 1.3 SE 2 7 1 4 1014.7 - 0.0
27/02:00am 20.4 23.3 18.2 87 1.4 CALM 0 4 0 2 1014.8 - 0.0
27/01:30am 21.3 24.5 18.9 86 1.5 CALM 0 0 0 0 1015.0 - 0.0
27/01:00am 22.1 25.2 19.6 86 1.6 E 2 7 1 4 1015.4 - 0.0
27/12:30am 22.1 25.2 19.6 86 1.6 ENE 2 7 1 4 1015.5 - 0.0
27/12:00am 22.1 25.6 19.6 86 1.6 CALM 0 0 0 0 1015.7 1013.5 0.0
 
Date/Time
EST
Temp
°C
App
Temp
°C
Dew
Point
°C
Rel
Hum
%
Delta-T
°C
Wind Press
QNH
hPa
Press
MSL
hPa
Rain since
9am
mm
Dir  Spd
km/h
Gust
km/h
Spd
kts
Gust
kts
26/11:30pm 22.2 25.9 19.9 87 1.5 CALM 0 0 0 0 1016.0 - 0.0
26/11:00pm 22.2 25.9 19.9 87 1.5 CALM 0 0 0 0 1016.2 - 0.0
26/10:30pm 22.2 25.9 19.9 87 1.5 CALM 0 0 0 0 1016.3 - 0.0
26/10:00pm 22.3 25.9 19.8 86 1.6 CALM 0 6 0 3 1016.1 - 0.0
26/09:30pm 22.3 25.4 20.2 88 1.4 N 4 7 2 4 1016.0 - 0.0
26/09:00pm 22.2 25.7 19.6 85 1.7 CALM 0 0 0 0 1015.8 1013.6 0.0
26/08:30pm 22.5 26.2 20.0 86 1.6 CALM 0 6 0 3 1015.5 - 0.0
26/08:00pm 22.9 24.9 19.9 83 2.0 N 9 13 5 7 1015.0 - 0.0
26/07:30pm 23.7 26.2 19.8 79 2.6 N 6 9 3 5 1014.6 - 0.0
26/07:00pm 24.3 26.5 19.6 75 3.1 N 7 11 4 6 1014.2 - 0.0
26/06:30pm 25.1 26.9 19.5 71 3.7 N 9 13 5 7 1013.6 - 0.0
26/06:00pm 26.4 28.1 19.3 65 4.7 N 9 19 5 10 1012.9 1010.7 0.0
26/05:30pm 27.9 28.8 18.3 56 6.2 N 11 19 6 10 1012.5 - 0.0
26/05:00pm 29.7 29.4 16.5 45 8.4 NNE 13 20 7 11 1012.0 - 0.0
26/04:30pm 30.7 29.3 15.5 39 9.6 NNE 17 26 9 14 1011.5 - 0.0
26/04:00pm 31.4 29.6 14.5 35 10.5 NNE 17 24 9 13 1011.5 - 0.0
26/03:30pm 31.2 30.1 16.4 41 9.5 NE 17 28 9 15 1011.5 - 0.0
26/03:00pm 31.2 30.9 18.2 46 8.5 NNE 17 32 9 17 1011.5 1009.2 0.0
26/02:30pm 30.5 30.1 17.2 44 8.6 NE 15 28 8 15 1011.7 - 0.0
26/02:00pm 30.9 30.6 16.5 42 9.2 NNE 13 24 7 13 1011.7 - 0.0
26/01:30pm 32.9 32.9 16.3 37 10.6 N 11 22 6 12 1011.8 - 0.0
26/01:00pm 33.0 32.2 15.0 33 11.3 N 13 20 7 11 1012.0 - 0.0
26/12:30pm 33.7 32.3 12.1 27 13.1 NNE 11 24 6 13 1012.5 - 0.0
26/12:00pm 32.9 31.1 12.0 28 12.6 NNW 13 24 7 13 1013.2 1010.9 0.0
26/11:30am 32.3 31.5 13.0 31 11.8 NNE 9 15 5 8 1014.0 - 0.0
26/11:00am 30.9 29.7 12.8 33 11.0 N 11 19 6 10 1014.6 - 0.0
26/10:30am 30.0 29.7 13.3 36 10.1 NNW 7 15 4 8 1015.0 - 0.0
26/10:00am 29.1 28.6 13.7 38 9.4 N 9 15 5 8 1015.5 - 0.0
26/09:30am 27.9 27.3 13.4 40 8.8 N 9 13 5 7 1015.8 - 0.0
26/09:00am 25.9 26.1 14.1 48 7.1 NNW 6 9 3 5 1016.1 1013.9 0.0
26/08:30am 24.5 25.9 14.3 53 6.2 CALM 0 2 0 1 1015.9 - 0.0
26/08:00am 23.1 25.3 16.4 66 4.2 CALM 0 6 0 3 1015.6 - 0.0
26/07:30am 20.6 22.8 16.4 77 2.6 CALM 0 6 0 3 1015.2 - 0.0
26/07:00am 18.7 20.6 15.8 83 1.8 CALM 0 0 0 0 1014.8 - 0.0
26/06:30am 18.1 19.9 15.4 84 1.6 CALM 0 0 0 0 1014.4 - 0.0
26/06:00am 18.1 19.6 14.6 80 2.1 CALM 0 7 0 4 1014.0 1011.8 0.0
26/05:30am 18.9 20.6 15.2 79 2.2 CALM 0 0 0 0 1013.7 - 0.0
26/05:00am 18.5 18.8 14.6 78 2.3 S 6 9 3 5 1013.5 - 0.0
26/04:30am 18.9 19.3 14.8 77 2.4 SSE 6 9 3 5 1013.3 - 0.0
26/04:00am 18.8 18.2 14.7 77 2.4 SSE 11 17 6 9 1013.2 - 0.0
26/03:30am 18.2 16.5 12.6 70 3.2 S 13 15 7 8 1013.2 - 0.0
26/03:00am 17.7 17.5 13.6 77 2.4 ESE 7 11 4 6 1013.3 1011.0 0.0
26/02:30am 17.8 19.1 14.1 79 2.2 CALM 0 0 0 0 1013.2 - 0.0
26/02:00am 18.6 19.7 14.5 77 2.4 ESE 2 6 1 3 1013.3 - 0.0
26/01:30am 18.9 19.3 15.2 79 2.2 ESE 7 9 4 5 1013.5 - 0.0
26/01:00am 19.1 19.7 15.8 81 2.0 ESE 7 7 4 4 1013.6 - 0.0
26/12:30am 19.4 21.6 16.4 83 1.8 CALM 0 0 0 0 1013.8 - 0.0
26/12:00am 19.9 20.6 17.1 84 1.7 SE 9 11 5 6 1014.1 1011.9 0.0
 
Date/Time
EST
Temp
°C
App
Temp
°C
Dew
Point
°C
Rel
Hum
%
Delta-T
°C
Wind Press
QNH
hPa
Press
MSL
hPa
Rain since
9am
mm
Dir  Spd
km/h
Gust
km/h
Spd
kts
Gust
kts
25/11:30pm 19.9 21.2 17.1 84 1.7 SE 6 9 3 5 1014.4 - 0.0
25/11:00pm 20.3 21.4 17.9 86 1.5 SE 9 11 5 6 1014.6 - 0.0
25/10:30pm 19.9 21.3 17.7 87 1.4 SE 7 9 4 5 1014.8 - 0.0
25/10:00pm 20.2 23.0 18.0 87 1.4 CALM 0 0 0 0 1014.8 - 0.0
25/09:30pm 20.6 22.6 17.8 84 1.8 ESE 4 7 2 4 1014.7 - 0.0
25/09:00pm 21.5 24.5 18.5 83 1.9 CALM 0 7 0 4 1014.6 1012.4 0.0
25/08:30pm 21.7 23.6 18.5 82 2.0 E 6 9 3 5 1014.1 - 0.0
25/08:00pm 22.2 24.6 18.8 81 2.2 ENE 4 9 2 5 1013.8 - 0.0
25/07:30pm 22.5 24.5 18.7 79 2.4 ENE 6 9 3 5 1013.4 - 0.0
25/07:00pm 23.1 24.3 18.2 74 3.1 NNE 9 15 5 8 1012.8 - 0.0
25/06:30pm 24.1 25.2 18.1 69 3.8 NNE 9 17 5 9 1012.3 - 0.0
25/06:00pm 24.9 25.7 18.1 66 4.4 NNE 11 20 6 11 1011.6 1009.4 0.0
25/05:30pm 26.3 26.3 18.2 61 5.2 NNE 15 26 8 14 1011.1 - 0.0
25/05:00pm 27.5 27.2 18.2 57 6.0 N 17 28 9 15 1010.5 - 0.0
25/04:30pm 29.1 28.9 18.5 52 6.9 NNE 17 28 9 15 1010.2 - 0.0
25/04:00pm 30.6 30.1 17.7 46 8.4 NNE 17 32 9 17 1009.9 - 0.0
25/03:30pm 31.7 31.1 17.6 43 9.2 NNE 17 26 9 14 1009.7 - 0.0
25/03:00pm 31.6 31.9 17.9 44 9.0 NNE 13 24 7 13 1009.8 1007.6 0.0
25/02:30pm 31.1 31.0 17.8 45 8.7 NE 15 24 8 13 1010.0 - 0.0
25/02:00pm 32.7 32.3 18.1 42 9.6 NE 17 30 9 16 1010.2 - 0.0
25/01:30pm 32.6 32.0 17.6 40 9.8 NNE 17 26 9 14 1010.6 - 0.0
25/01:00pm 32.9 32.5 17.1 39 10.2 N 15 28 8 15 1011.2 - 0.0
25/12:30pm 32.1 31.9 15.6 37 10.4 NNW 11 19 6 10 1011.9 - 0.0
25/12:00pm 32.4 32.8 16.3 38 10.3 W 9 17 5 9 1012.4 1010.2 0.0
25/11:30am 30.6 31.0 16.2 41 9.2 N 9 15 5 8 1013.1 - 0.0
25/11:00am 30.1 31.2 17.2 46 8.3 ESE 7 15 4 8 1013.7 - 0.0
25/10:30am 28.9 29.7 17.4 49 7.4 N 9 13 5 7 1014.1 - 0.0
25/10:00am 27.6 29.1 17.7 54 6.4 NNE 6 15 3 8 1014.4 - 0.0
25/09:30am 26.6 28.2 17.9 59 5.6 N 6 11 3 6 1014.5 - 0.0
25/09:00am 25.8 28.1 18.5 64 4.7 N 4 13 2 7 1014.6 1012.4 0.0
25/08:30am 24.2 25.8 17.9 68 4.0 NW 6 9 3 5 1014.6 - 0.0
25/08:00am 23.0 25.6 19.2 79 2.5 N 4 7 2 4 1014.5 - 0.0
25/07:30am 20.9 23.9 18.5 86 1.5 CALM 0 0 0 0 1014.2 - 0.0
25/07:00am 20.0 22.9 18.3 90 1.1 CALM 0 0 0 0 1013.7 - 0.0
25/06:30am 18.5 20.0 17.7 95 0.5 SSE 6 7 3 4 1013.5 - 0.0
25/06:00am 17.8 20.0 16.5 92 0.8 CALM 0 0 0 0 1012.9 1010.7 0.0
25/05:30am 18.3 20.7 17.0 92 0.8 CALM 0 0 0 0 1012.6 - 0.0
25/05:00am 18.6 21.0 17.1 91 0.9 CALM 0 0 0 0 1012.4 - 0.0
25/04:30am 19.0 21.7 17.7 92 0.8 CALM 0 0 0 0 1012.1 - 0.0
25/04:00am 18.8 21.1 17.6 93 0.7 E 2 11 1 6 1011.8 - 0.0
25/03:30am 18.8 21.3 17.3 91 0.9 CALM 0 0 0 0 1011.7 - 0.0
25/03:00am 18.9 21.4 17.2 90 1.1 CALM 0 0 0 0 1011.8 1009.6 0.0
25/02:30am 19.0 21.4 17.0 88 1.2 CALM 0 0 0 0 1012.0 - 0.0
25/02:00am 19.4 22.0 17.4 88 1.2 CALM 0 0 0 0 1012.1 - 0.0
25/01:30am 19.6 22.1 17.2 86 1.5 CALM 0 0 0 0 1012.4 - 0.0
25/01:00am 20.5 23.3 17.9 85 1.6 CALM 0 0 0 0 1012.6 - 0.0
25/12:30am 20.9 23.3 17.9 83 1.9 E 2 6 1 3 1012.9 - 0.0
25/12:00am 21.2 23.0 18.2 83 1.9 ESE 6 7 3 4 1013.4 1011.1 0.0
 
Date/Time
EST
Temp
°C
App
Temp
°C
Dew
Point
°C
Rel
Hum
%
Delta-T
°C
Wind Press
QNH
hPa
Press
MSL
hPa
Rain since
9am
mm
Dir  Spd
km/h
Gust
km/h
Spd
kts
Gust
kts
24/11:30pm 21.2 24.3 18.6 85 1.7 CALM 0 0 0 0 1013.6 - 0.0
24/11:00pm 21.3 24.4 18.7 85 1.7 CALM 0 6 0 3 1013.7 - 0.0
24/10:30pm 21.4 24.2 18.8 85 1.7 ENE 2 6 1 3 1013.9 - 0.0
24/10:00pm 21.6 24.4 18.8 84 1.8 E 2 7 1 4 1014.0 - 0.0
24/09:30pm 21.8 24.6 18.8 83 1.9 NE 2 9 1 5 1014.1 - 0.0
24/09:00pm 22.0 23.7 18.6 81 2.2 ENE 7 11 4 6 1013.8 1011.6 0.0
24/08:30pm 22.2 23.9 18.6 80 2.3 ENE 7 11 4 6 1013.5 - 0.0
24/08:00pm 22.5 23.4 18.5 78 2.6 NE 11 19 6 10 1013.3 - 0.0
24/07:30pm 22.9 24.3 18.7 77 2.7 NE 9 13 5 7 1012.8 - 0.0
24/07:00pm 23.0 23.9 18.5 76 2.9 NE 11 20 6 11 1012.4 - 0.0

Other Formats:

Comma delimited format used in spreadsheet applications
http://www.bom.gov.au/fwo/IDQ60801/IDQ60801.95286.axf

JavaScript Object Notation format (JSON) in row-major order
http://www.bom.gov.au/fwo/IDQ60801/IDQ60801.95286.json